Africa, Pennsylvania
Current Conditions -  °F | °C
As of 7:53 AM on Friday 19 Dec 2014 (Local Time) from KHGR Reporting Station
Overcast Overcast  
Wind Chill: 25°   Ceiling: 2800
Heat Index: 33°   Visibility: 10mi
Dew Point: 23°   Wind: 10mph
Humidity: 66%   Direction: 300°WNW
Pressure: 30.13"   Gusts: NA
Location:  39.8035°N, 77.9346°W
Report Text: KHGR 191253Z 30009KT 10SM OVC028 01/M05 A3013 RMK AO2 SLP219 T00061050
Loading
Personal Weather Stations






























Interactive Weather Map New forecast layout! Learn more

10-Day Weather Forecast

Advertisements
Track Severe Weather on mobile